createdAt,value
2022-11-28T00:00:52.371Z,29.9
2022-11-28T00:05:52.335Z,27.14
2022-11-28T00:10:52.330Z,26.18
2022-11-28T00:15:52.384Z,26.23
2022-11-28T00:20:52.369Z,27.85
2022-11-28T00:25:52.370Z,26.97
2022-11-28T00:30:52.344Z,28.18
2022-11-28T00:35:52.386Z,28.29
2022-11-28T00:40:52.340Z,27.67
2022-11-28T00:45:52.447Z,27.49
2022-11-28T00:50:52.367Z,29.52
2022-11-28T00:55:52.383Z,27.67
2022-11-28T01:00:52.431Z,28.39
2022-11-28T01:05:52.375Z,28.05
2022-11-28T01:10:52.358Z,28.15
2022-11-28T01:15:52.406Z,27.09
2022-11-28T01:20:52.397Z,27.39
2022-11-28T01:25:52.404Z,26.77
2022-11-28T01:30:52.363Z,26.23
2022-11-28T01:35:52.427Z,26.59
2022-11-28T01:40:52.363Z,26
2022-11-28T01:45:52.400Z,27.96
2022-11-28T01:50:52.370Z,28.07
2022-11-28T01:55:52.377Z,29.19
2022-11-28T02:00:52.448Z,28.97
2022-11-28T02:05:52.418Z,26.93
2022-11-28T02:10:52.418Z,25.88
2022-11-28T02:15:52.451Z,26.58
2022-11-28T02:20:52.421Z,25.68
2022-11-28T02:25:52.386Z,24.27
2022-11-28T02:30:52.385Z,21.35
2022-11-28T02:35:52.432Z,20.53
2022-11-28T02:40:52.420Z,20.09
2022-11-28T02:45:52.425Z,20.22
2022-11-28T02:50:52.418Z,20.4
2022-11-28T02:55:52.419Z,20.23
2022-11-28T03:00:52.421Z,19.4
2022-11-28T03:05:52.390Z,20.1
2022-11-28T03:10:52.400Z,20.17
2022-11-28T03:20:52.438Z,21.3
2022-11-28T03:25:52.400Z,19.24
2022-11-28T03:30:52.409Z,19.51
2022-11-28T03:35:52.469Z,19.56
2022-11-28T03:40:52.415Z,16.71
2022-11-28T03:45:52.447Z,14.4
2022-11-28T03:50:52.454Z,14.29
2022-11-28T03:55:52.500Z,14.39
2022-11-28T04:00:52.483Z,13.61
2022-11-28T04:05:52.421Z,12.04
2022-11-28T04:10:52.425Z,11.78
2022-11-28T04:15:52.451Z,12.65
2022-11-28T04:20:52.454Z,11.39
2022-11-28T04:25:52.426Z,12.15
2022-11-28T04:30:52.460Z,13.41
2022-11-28T04:35:52.495Z,14.55
2022-11-28T04:40:52.457Z,14.23
2022-11-28T04:45:52.502Z,15.56
2022-11-28T04:50:52.442Z,15.99
2022-11-28T04:55:52.477Z,15.96
2022-11-28T05:00:52.505Z,17.07
2022-11-28T05:05:52.470Z,15.78
2022-11-28T05:10:52.460Z,14.36
2022-11-28T05:15:52.446Z,14.83
2022-11-28T05:20:52.500Z,16.02
2022-11-28T05:25:52.469Z,15.09
2022-11-28T05:30:52.482Z,14.92
2022-11-28T05:35:52.486Z,15.6
2022-11-28T05:40:52.486Z,15.65
2022-11-28T05:45:52.478Z,16.47
2022-11-28T05:50:52.452Z,15.95
2022-11-28T05:55:52.487Z,15
2022-11-28T06:00:52.505Z,14.91
2022-11-28T06:05:52.480Z,14.44
2022-11-28T06:10:52.493Z,14.64
2022-11-28T06:15:52.466Z,13.89
2022-11-28T06:20:52.466Z,16.22
2022-11-28T06:25:52.465Z,16.28
2022-11-28T06:30:52.512Z,15.83
2022-11-28T06:35:52.505Z,16.75
2022-11-28T06:40:52.473Z,17.13
2022-11-28T06:45:52.551Z,16.54
2022-11-28T06:50:52.516Z,16.36
2022-11-28T06:55:52.478Z,16.91
2022-11-28T07:00:52.543Z,15.94
2022-11-28T07:05:52.477Z,16.29
2022-11-28T07:10:52.508Z,14.72
2022-11-28T07:15:52.484Z,15.28
2022-11-28T07:20:52.494Z,14.33
2022-11-28T07:25:52.523Z,13.89
2022-11-28T07:30:52.488Z,13.23
2022-11-28T07:35:52.555Z,13.55
2022-11-28T07:40:52.503Z,14.94
2022-11-28T07:46:00.820Z,14.91
2022-11-28T07:50:52.502Z,15.66
2022-11-28T07:55:52.522Z,13.72
2022-11-28T08:00:52.554Z,13.74
2022-11-28T08:05:52.500Z,15.13
2022-11-28T08:10:52.536Z,13.59
2022-11-28T08:15:52.541Z,13.95
2022-11-28T08:20:52.540Z,13.99
2022-11-28T08:25:52.531Z,13.68
2022-11-28T08:30:52.546Z,12.46
2022-11-28T08:35:52.574Z,13.91
2022-11-28T08:40:52.517Z,13.06
2022-11-28T08:45:52.599Z,11.69
2022-11-28T08:50:52.517Z,12.52
2022-11-28T08:55:52.519Z,11.68
2022-11-28T09:00:52.581Z,11.85
2022-11-28T09:05:52.528Z,11.03
2022-11-28T09:10:52.524Z,10.57
2022-11-28T09:15:53.690Z,10.89
2022-11-28T09:20:52.566Z,10.39
2022-11-28T09:25:52.569Z,10.14
2022-11-28T09:30:52.573Z,11.35
2022-11-28T09:35:52.564Z,12.18
2022-11-28T09:40:52.569Z,11.26
2022-11-28T09:45:52.657Z,10.81
2022-11-28T09:50:52.558Z,9.72
2022-11-28T09:55:52.567Z,8.02
2022-11-28T10:00:55.325Z,7.57
2022-11-28T10:05:52.552Z,7.2
2022-11-28T10:10:52.544Z,7.55
2022-11-28T10:15:52.582Z,6.15
2022-11-28T10:20:52.557Z,5.64
2022-11-28T10:25:52.551Z,5.52
2022-11-28T10:30:52.609Z,5.6
2022-11-28T10:35:52.616Z,5.69
2022-11-28T10:40:52.598Z,5.1
2022-11-28T10:45:52.694Z,6.62
2022-11-28T10:50:52.563Z,7.92
2022-11-28T10:55:52.593Z,6.43
2022-11-28T11:00:52.590Z,6.06
2022-11-28T11:05:52.573Z,6.2
2022-11-28T11:10:52.607Z,6.41
2022-11-28T11:15:52.605Z,6.36
2022-11-28T11:20:52.599Z,5.78
2022-11-28T11:25:52.571Z,6.4
2022-11-28T11:30:52.618Z,6.1
2022-11-28T11:35:52.636Z,5.87
2022-11-28T11:40:52.610Z,5.64
2022-11-28T11:45:52.748Z,6.48
2022-11-28T11:50:52.591Z,5.89
2022-11-28T11:55:52.624Z,6.46
2022-11-28T12:00:52.603Z,6.77
2022-11-28T12:06:14.001Z,5.98
2022-11-28T12:10:52.591Z,5.98
2022-11-28T12:15:52.674Z,5.92
2022-11-28T12:20:52.593Z,5.93
2022-11-28T12:25:52.604Z,5.75
2022-11-28T12:30:52.690Z,5.47
2022-11-28T12:35:52.626Z,5.25
2022-11-28T12:40:52.649Z,5.42
2022-11-28T12:45:52.605Z,5.49
2022-11-28T12:50:52.635Z,5.08
2022-11-28T12:55:52.624Z,5.31
2022-11-28T13:00:52.604Z,4.78
2022-11-28T13:05:52.610Z,4.86
2022-11-28T13:10:52.628Z,5.05
2022-11-28T13:15:52.708Z,4.59
2022-11-28T13:20:52.614Z,4.87
2022-11-28T13:25:52.647Z,4.75
2022-11-28T13:30:52.701Z,5.19
2022-11-28T13:35:52.718Z,4.69
2022-11-28T13:40:52.637Z,4.87
2022-11-28T13:46:04.000Z,4.48
2022-11-28T13:50:52.666Z,4.5
2022-11-28T13:55:52.637Z,4.58
2022-11-28T14:00:52.627Z,4.79
2022-11-28T14:05:52.637Z,4.81
2022-11-28T14:10:52.637Z,4.4
2022-11-28T14:15:52.700Z,4.69
2022-11-28T14:20:52.639Z,4.99
2022-11-28T14:25:52.652Z,4.15
2022-11-28T14:30:52.692Z,3.55
2022-11-28T14:35:52.679Z,3.95
2022-11-28T14:40:52.672Z,3.81
2022-11-28T14:45:52.677Z,3.74
2022-11-28T14:50:59.225Z,3.81
2022-11-28T14:55:52.652Z,4.55
2022-11-28T15:00:52.681Z,4.37
2022-11-28T15:05:52.651Z,4.66
2022-11-28T15:10:52.692Z,5.3
2022-11-28T15:15:52.712Z,4.67
2022-11-28T15:20:52.690Z,5.49
2022-11-28T15:25:52.689Z,5.66
2022-11-28T15:30:52.702Z,5.44
2022-11-28T15:35:52.696Z,6.06
2022-11-28T15:40:52.676Z,5.79
2022-11-28T15:45:52.670Z,7.16
2022-11-28T15:50:52.672Z,7.25
2022-11-28T15:55:52.699Z,7.19
2022-11-28T16:00:52.751Z,8.11
2022-11-28T16:05:52.686Z,8.33
2022-11-28T16:10:52.683Z,8.28
2022-11-28T16:15:52.793Z,8.76
2022-11-28T16:20:52.685Z,8.21
2022-11-28T16:25:52.716Z,8.91
2022-11-28T16:30:52.690Z,8.75
2022-11-28T16:35:52.719Z,9.54
2022-11-28T16:40:52.726Z,10.44
2022-11-28T16:45:52.727Z,11.37
2022-11-28T16:50:52.692Z,12.22
2022-11-28T16:55:52.726Z,14.48
2022-11-28T17:00:52.867Z,13.19
2022-11-28T17:05:52.733Z,14.15
2022-11-28T17:10:52.729Z,14.49
2022-11-28T17:15:52.701Z,14.23
2022-11-28T17:20:52.703Z,14.77
2022-11-28T17:25:52.708Z,15.11
2022-11-28T17:30:52.700Z,13.36
2022-11-28T17:35:52.734Z,13.07
2022-11-28T17:40:52.705Z,15.26
2022-11-28T17:45:52.726Z,14.53
2022-11-28T17:50:52.768Z,14.59
2022-11-28T17:55:52.714Z,15.5
2022-11-28T18:00:56.126Z,14.15
2022-11-28T18:05:52.755Z,15.21
2022-11-28T18:10:52.725Z,15.3
2022-11-28T18:15:52.721Z,15.16
2022-11-28T18:20:52.718Z,16.34
2022-11-28T18:25:52.754Z,14.88
2022-11-28T18:30:52.750Z,14.93
2022-11-28T18:35:52.785Z,14.34
2022-11-28T18:40:52.727Z,15.25
2022-11-28T18:45:52.789Z,15.63
2022-11-28T18:50:52.741Z,16.03
2022-11-28T18:55:52.773Z,16.51
2022-11-28T19:00:52.810Z,18.84
2022-11-28T19:05:52.764Z,19.05
2022-11-28T19:10:52.744Z,19.14
2022-11-28T19:15:52.740Z,19.6
2022-11-28T19:20:52.770Z,21.23
2022-11-28T19:25:52.782Z,21.01
2022-11-28T19:30:52.787Z,20.23
2022-11-28T19:35:52.790Z,19.13
2022-11-28T19:40:52.788Z,18.72
2022-11-28T19:45:52.849Z,17.83
2022-11-28T19:50:52.793Z,18.3
2022-11-28T19:55:52.756Z,19.12
2022-11-28T20:00:52.762Z,19.15
2022-11-28T20:05:52.802Z,17.51
2022-11-28T20:10:52.796Z,16.85
2022-11-28T20:15:52.751Z,16.69
2022-11-28T20:20:52.777Z,16.23
2022-11-28T20:25:52.769Z,16.46
2022-11-28T20:30:52.806Z,16.14
2022-11-28T20:35:56.918Z,16.84
2022-11-28T20:40:52.771Z,17.39
2022-11-28T20:45:52.814Z,16.25
2022-11-28T20:50:52.807Z,16.86
2022-11-28T20:55:52.808Z,16.45
2022-11-28T21:00:52.786Z,17.24
2022-11-28T21:05:56.495Z,17.93
2022-11-28T21:10:52.799Z,18.72
2022-11-28T21:15:52.808Z,17.76
2022-11-28T21:20:52.785Z,16.99
2022-11-28T21:25:52.790Z,17
2022-11-28T21:30:52.824Z,17.5
2022-11-28T21:35:52.845Z,16.89
2022-11-28T21:40:52.825Z,16.98
2022-11-28T21:45:52.836Z,17.58
2022-11-28T21:50:52.827Z,16.59
2022-11-28T21:55:52.787Z,16.86
2022-11-28T22:00:53.904Z,17.68
2022-11-28T22:05:52.795Z,18.78
2022-11-28T22:10:52.842Z,18.31
2022-11-28T22:15:52.912Z,17.96
2022-11-28T22:20:53.089Z,16.69
2022-11-28T22:25:52.852Z,16.87
2022-11-28T22:30:52.805Z,17.75
2022-11-28T22:35:52.835Z,18.06
2022-11-28T22:40:52.804Z,16.93
2022-11-28T22:45:52.843Z,17.46
2022-11-28T22:50:52.844Z,16.92
2022-11-28T22:55:52.813Z,17.2
2022-11-28T23:00:52.854Z,18.43
2022-11-28T23:05:52.821Z,16.88
2022-11-28T23:10:52.856Z,16.53
2022-11-28T23:15:53.086Z,16.66
2022-11-28T23:20:52.863Z,16.89
2022-11-28T23:25:52.859Z,18.59
2022-11-28T23:30:52.825Z,17.46
2022-11-28T23:35:52.882Z,17.14
2022-11-28T23:40:52.845Z,16.91
2022-11-28T23:45:52.886Z,16.89
2022-11-28T23:50:52.830Z,16.49
2022-11-28T23:55:52.829Z,15.99
